createdAt,value
2022-12-31T00:01:29.623Z,5.03
2022-12-31T00:03:58.592Z,5.12
2022-12-31T00:06:35.977Z,5.18
2022-12-31T00:09:07.110Z,5.22
2022-12-31T00:11:36.539Z,5.27
2022-12-31T00:14:06.288Z,5.32
2022-12-31T00:16:38.070Z,5.39
2022-12-31T00:19:09.715Z,5.45
2022-12-31T00:21:38.861Z,5.48
2022-12-31T00:24:08.068Z,5.50
2022-12-31T00:26:37.369Z,5.53
2022-12-31T00:29:06.342Z,5.57
2022-12-31T00:31:37.280Z,5.61
2022-12-31T00:34:07.112Z,5.64
2022-12-31T00:36:39.441Z,5.68
2022-12-31T00:39:10.720Z,5.73
2022-12-31T00:41:40.727Z,5.81
2022-12-31T00:44:11.459Z,5.88
2022-12-31T00:49:08.016Z,6.01
2022-12-31T00:51:36.704Z,6.06
2022-12-31T00:54:05.839Z,6.10
2022-12-31T00:56:35.738Z,6.16
2022-12-31T00:59:04.594Z,6.21
2022-12-31T01:01:36.744Z,6.26
2022-12-31T01:04:11.688Z,6.31
2022-12-31T01:06:41.196Z,6.36
2022-12-31T01:09:11.418Z,6.42
2022-12-31T01:11:40.413Z,6.46
2022-12-31T01:14:18.432Z,6.50
2022-12-31T01:16:55.828Z,6.55
2022-12-31T01:19:27.378Z,6.60
2022-12-31T01:21:56.778Z,6.66
2022-12-31T01:24:25.962Z,6.70
2022-12-31T01:26:58.447Z,6.75
2022-12-31T01:29:27.824Z,6.80
2022-12-31T01:31:56.508Z,6.83
2022-12-31T01:34:25.111Z,6.86
2022-12-31T01:36:53.799Z,6.88
2022-12-31T01:39:22.780Z,6.91
2022-12-31T01:41:52.498Z,6.94
2022-12-31T01:44:24.244Z,6.95
2022-12-31T01:46:57.242Z,6.98
2022-12-31T01:49:56.144Z,7.00
2022-12-31T01:52:31.882Z,7.01
2022-12-31T01:55:15.098Z,7.03
2022-12-31T01:57:45.218Z,7.06
2022-12-31T02:00:14.570Z,7.07
2022-12-31T02:02:46.075Z,7.10
2022-12-31T02:05:27.993Z,7.12
2022-12-31T02:07:56.952Z,7.14
2022-12-31T02:10:26.079Z,7.16
2022-12-31T02:12:55.162Z,7.18
2022-12-31T02:15:39.205Z,7.20
2022-12-31T02:18:13.825Z,7.25
2022-12-31T02:20:48.994Z,7.29
2022-12-31T02:23:24.605Z,7.32
2022-12-31T02:25:56.066Z,7.37
2022-12-31T02:28:37.222Z,7.41
2022-12-31T02:31:19.187Z,7.45
2022-12-31T02:34:20.305Z,7.48
2022-12-31T02:36:51.017Z,7.52
2022-12-31T02:39:19.689Z,7.53
2022-12-31T02:41:53.107Z,7.55
2022-12-31T02:44:35.918Z,7.56
2022-12-31T02:47:10.120Z,7.59
2022-12-31T02:49:48.320Z,7.60
2022-12-31T02:52:47.441Z,7.63
2022-12-31T02:55:22.045Z,7.65
2022-12-31T02:58:23.089Z,7.67
2022-12-31T03:01:14.669Z,7.66
2022-12-31T03:03:43.719Z,7.67
2022-12-31T03:06:12.799Z,7.67
2022-12-31T03:09:02.903Z,7.67
2022-12-31T03:11:50.119Z,7.67
2022-12-31T03:14:18.809Z,7.67
2022-12-31T03:16:49.528Z,7.67
2022-12-31T03:19:36.666Z,7.68
2022-12-31T03:22:24.095Z,7.68
2022-12-31T03:25:11.392Z,7.69
2022-12-31T03:27:39.978Z,7.70
2022-12-31T03:30:09.379Z,7.71
2022-12-31T03:32:38.074Z,7.72
2022-12-31T03:35:08.143Z,7.75
2022-12-31T03:37:40.957Z,7.76
2022-12-31T03:40:12.332Z,7.77
2022-12-31T03:42:41.505Z,7.78
2022-12-31T03:45:11.104Z,7.79
2022-12-31T03:47:40.194Z,7.78
2022-12-31T03:50:11.017Z,7.79
2022-12-31T03:52:39.630Z,7.80
2022-12-31T03:55:09.571Z,7.80
2022-12-31T03:57:38.960Z,7.81
2022-12-31T04:00:10.881Z,7.81
2022-12-31T04:02:39.902Z,7.79
2022-12-31T04:05:09.285Z,7.77
2022-12-31T04:07:38.046Z,7.75
2022-12-31T04:10:09.241Z,7.73
2022-12-31T04:12:38.240Z,7.70
2022-12-31T04:15:08.360Z,7.67
2022-12-31T04:17:37.241Z,7.67
2022-12-31T04:20:06.702Z,7.67
2022-12-31T04:22:35.442Z,7.67
2022-12-31T04:25:11.609Z,7.66
2022-12-31T04:27:41.819Z,7.66
2022-12-31T04:30:12.875Z,7.67
2022-12-31T04:32:42.170Z,7.67
2022-12-31T04:35:12.282Z,7.66
2022-12-31T04:37:40.965Z,7.64
2022-12-31T04:40:10.359Z,7.62
2022-12-31T04:42:39.157Z,7.59
2022-12-31T04:45:08.734Z,7.59
2022-12-31T04:47:37.256Z,7.59
2022-12-31T04:50:06.817Z,7.61
2022-12-31T04:52:40.455Z,7.62
2022-12-31T04:55:12.011Z,7.64
2022-12-31T04:57:42.351Z,7.66
2022-12-31T05:00:11.614Z,7.65
2022-12-31T05:02:40.407Z,7.65
2022-12-31T05:05:09.967Z,7.66
2022-12-31T05:07:39.734Z,7.67
2022-12-31T05:10:09.843Z,7.68
2022-12-31T05:12:39.166Z,7.71
2022-12-31T05:15:08.765Z,7.72
2022-12-31T05:17:37.747Z,7.74
2022-12-31T05:20:07.258Z,7.75
2022-12-31T05:22:35.864Z,7.77
2022-12-31T05:25:07.082Z,7.77
2022-12-31T05:27:38.520Z,7.79
2022-12-31T05:30:08.430Z,7.83
2022-12-31T05:32:37.143Z,7.87
2022-12-31T05:35:07.600Z,7.92
2022-12-31T05:37:36.134Z,7.98
2022-12-31T05:40:05.962Z,8.06
2022-12-31T05:42:34.449Z,8.14
2022-12-31T05:45:03.509Z,8.22
2022-12-31T05:47:32.625Z,8.27
2022-12-31T05:50:02.442Z,8.32
2022-12-31T05:52:31.320Z,8.37
2022-12-31T05:55:00.014Z,8.42
2022-12-31T05:57:28.800Z,8.45
2022-12-31T05:59:57.604Z,8.47
2022-12-31T06:02:26.588Z,8.49
2022-12-31T06:04:56.278Z,8.49
2022-12-31T06:07:24.760Z,8.49
2022-12-31T06:09:53.434Z,8.49
2022-12-31T06:12:23.169Z,8.47
2022-12-31T06:14:52.054Z,8.45
2022-12-31T06:17:22.676Z,8.44
2022-12-31T06:19:52.275Z,8.45
2022-12-31T06:22:21.103Z,8.43
2022-12-31T06:24:49.645Z,8.42
2022-12-31T06:27:18.441Z,8.40
2022-12-31T06:29:48.096Z,8.38
2022-12-31T06:32:17.663Z,8.38
2022-12-31T06:34:46.439Z,8.40
2022-12-31T06:37:15.228Z,8.42
2022-12-31T06:39:43.904Z,8.43
2022-12-31T06:42:12.939Z,8.43
2022-12-31T06:44:41.791Z,8.42
2022-12-31T06:47:10.386Z,8.41
2022-12-31T06:49:40.971Z,8.40
2022-12-31T06:52:09.721Z,8.40
2022-12-31T06:54:39.102Z,8.42
2022-12-31T06:57:10.524Z,8.44
2022-12-31T06:59:39.642Z,8.45
2022-12-31T07:02:14.294Z,8.48
2022-12-31T07:05:10.939Z,8.50
2022-12-31T07:07:51.650Z,8.51
2022-12-31T07:10:29.790Z,8.53
2022-12-31T07:13:30.403Z,8.54
2022-12-31T07:16:15.108Z,8.56
2022-12-31T07:19:11.404Z,8.59
2022-12-31T07:21:41.678Z,8.64
2022-12-31T07:24:11.695Z,8.69
2022-12-31T07:27:08.484Z,8.74
2022-12-31T07:29:54.912Z,8.80
2022-12-31T07:32:42.328Z,8.86
2022-12-31T07:35:35.216Z,8.92
2022-12-31T07:38:41.668Z,8.95
2022-12-31T07:41:23.920Z,8.99
2022-12-31T07:43:57.151Z,9.02
2022-12-31T07:46:43.902Z,9.04
2022-12-31T07:49:14.100Z,9.08
2022-12-31T07:51:43.478Z,9.12
2022-12-31T07:54:14.377Z,9.17
2022-12-31T07:56:44.156Z,9.23
2022-12-31T07:59:48.840Z,9.30
2022-12-31T08:02:24.517Z,9.38
2022-12-31T08:05:02.004Z,9.45
2022-12-31T08:07:37.246Z,9.50
2022-12-31T08:10:27.629Z,9.56
2022-12-31T08:13:02.297Z,9.63
2022-12-31T08:15:32.190Z,9.69
2022-12-31T08:18:01.391Z,9.74
2022-12-31T08:20:32.100Z,9.77
2022-12-31T08:23:22.334Z,9.81
2022-12-31T08:26:00.756Z,9.85
2022-12-31T08:28:49.880Z,9.88
2022-12-31T08:31:22.418Z,9.90
2022-12-31T08:34:33.311Z,9.91
2022-12-31T08:37:13.293Z,9.92
2022-12-31T08:39:56.080Z,9.93
2022-12-31T08:43:02.355Z,9.93
2022-12-31T08:45:43.404Z,9.92
2022-12-31T08:48:42.416Z,9.93
2022-12-31T08:51:29.859Z,9.93
2022-12-31T08:53:59.463Z,9.94
2022-12-31T08:56:29.385Z,9.97
2022-12-31T08:59:39.526Z,9.99
2022-12-31T09:02:08.788Z,10.04
2022-12-31T09:05:02.702Z,10.10
2022-12-31T09:07:49.002Z,10.18
2022-12-31T09:10:21.890Z,10.30
2022-12-31T09:13:12.990Z,10.51
2022-12-31T09:15:56.803Z,10.75
2022-12-31T09:18:31.367Z,10.92
2022-12-31T09:21:03.621Z,11.07
2022-12-31T09:23:33.019Z,11.17
2022-12-31T09:26:20.640Z,11.24
2022-12-31T09:29:34.195Z,11.34
2022-12-31T09:32:48.579Z,11.46
2022-12-31T09:35:38.952Z,11.57
2022-12-31T09:38:50.312Z,11.66
2022-12-31T09:42:02.778Z,11.79
2022-12-31T09:44:43.087Z,11.92
2022-12-31T09:47:41.801Z,11.97
2022-12-31T09:50:49.283Z,12.00
2022-12-31T09:53:44.492Z,12.01
2022-12-31T09:56:21.185Z,12.01
2022-12-31T09:59:18.181Z,12.02
2022-12-31T10:01:55.150Z,12.05
2022-12-31T10:04:30.047Z,12.10
2022-12-31T10:07:28.821Z,12.14
2022-12-31T10:10:08.328Z,12.27
2022-12-31T10:13:02.939Z,12.42
2022-12-31T10:16:08.284Z,12.60
2022-12-31T10:18:46.923Z,12.77
2022-12-31T10:21:38.843Z,12.92
2022-12-31T10:24:22.975Z,13.04
2022-12-31T10:27:04.044Z,13.14
2022-12-31T10:29:48.717Z,13.24
2022-12-31T10:32:39.521Z,13.32
2022-12-31T10:35:47.435Z,13.40
2022-12-31T10:38:36.190Z,13.49
2022-12-31T10:41:46.949Z,13.60
2022-12-31T10:44:35.182Z,13.71
2022-12-31T10:47:10.864Z,13.79
2022-12-31T10:50:05.151Z,13.84
2022-12-31T10:52:56.169Z,13.90
2022-12-31T10:55:52.744Z,13.92
2022-12-31T10:59:08.788Z,13.95
2022-12-31T11:01:58.980Z,13.98
2022-12-31T11:05:06.362Z,14.01
2022-12-31T11:08:06.175Z,14.02
2022-12-31T11:10:56.460Z,14.06
2022-12-31T11:13:38.584Z,14.10
2022-12-31T11:16:22.544Z,14.10
2022-12-31T11:19:19.354Z,14.10
2022-12-31T11:22:37.398Z,14.09
2022-12-31T11:25:11.920Z,14.09
2022-12-31T11:28:02.418Z,14.08
2022-12-31T11:31:06.868Z,14.08
2022-12-31T11:34:04.404Z,14.08
2022-12-31T11:36:33.465Z,14.09
2022-12-31T11:39:30.770Z,14.12
2022-12-31T11:42:35.381Z,14.14
2022-12-31T11:45:35.520Z,14.18
2022-12-31T11:48:43.132Z,14.22
2022-12-31T11:51:29.799Z,14.26
2022-12-31T11:54:25.322Z,14.31
2022-12-31T11:57:19.203Z,14.37
2022-12-31T11:59:47.993Z,14.44
2022-12-31T12:02:35.466Z,14.48
2022-12-31T12:05:10.962Z,14.52
2022-12-31T12:07:40.684Z,14.58
2022-12-31T12:10:35.635Z,14.60
2022-12-31T12:13:20.068Z,14.63
2022-12-31T12:15:51.568Z,14.66
2022-12-31T12:18:45.141Z,14.68
2022-12-31T12:21:19.314Z,14.68
2022-12-31T12:24:00.434Z,14.70
2022-12-31T12:26:39.400Z,14.71
2022-12-31T12:29:12.291Z,14.71
2022-12-31T12:31:41.588Z,14.69
2022-12-31T12:34:37.927Z,14.69
2022-12-31T12:37:37.640Z,14.71
2022-12-31T12:40:33.341Z,14.74
2022-12-31T12:43:04.278Z,14.75
2022-12-31T12:45:52.155Z,14.77
2022-12-31T12:48:40.660Z,14.77
2022-12-31T12:51:26.934Z,14.76
2022-12-31T12:54:12.098Z,14.75
2022-12-31T12:57:10.715Z,14.72
2022-12-31T12:59:48.065Z,14.70
2022-12-31T13:02:47.012Z,14.71
2022-12-31T13:06:11.980Z,14.69
2022-12-31T13:08:55.645Z,14.68
2022-12-31T13:11:37.715Z,14.65
2022-12-31T13:14:16.139Z,14.64
2022-12-31T13:17:33.554Z,14.62
2022-12-31T13:20:21.690Z,14.64
2022-12-31T13:23:18.644Z,14.68
2022-12-31T13:26:06.179Z,14.70
2022-12-31T13:28:36.304Z,14.70
2022-12-31T13:31:12.956Z,14.70
2022-12-31T13:33:48.680Z,14.70
2022-12-31T13:36:22.657Z,14.71
2022-12-31T13:39:03.624Z,14.73
2022-12-31T13:41:32.288Z,14.74
2022-12-31T13:44:17.469Z,14.77
2022-12-31T13:47:13.505Z,14.79
2022-12-31T13:49:49.019Z,14.78
2022-12-31T13:52:34.705Z,14.79
2022-12-31T13:55:26.073Z,14.80
2022-12-31T13:58:13.706Z,14.78
2022-12-31T14:00:53.857Z,14.77
2022-12-31T14:03:41.119Z,14.78
2022-12-31T14:06:15.163Z,14.76
2022-12-31T14:08:45.151Z,14.76
2022-12-31T14:11:29.101Z,14.79
2022-12-31T14:14:06.787Z,14.80
2022-12-31T14:16:45.562Z,14.82
2022-12-31T14:19:33.298Z,14.81
2022-12-31T14:22:24.363Z,14.80
2022-12-31T14:24:53.860Z,14.83
2022-12-31T14:27:35.288Z,14.82
2022-12-31T14:30:07.762Z,14.82
2022-12-31T14:32:58.633Z,14.83
2022-12-31T14:35:36.031Z,14.85
2022-12-31T14:38:27.123Z,14.85
2022-12-31T14:41:33.834Z,14.86
2022-12-31T14:44:30.561Z,14.85
2022-12-31T14:47:17.282Z,14.84
2022-12-31T14:50:10.231Z,14.85
2022-12-31T14:53:00.309Z,14.85
2022-12-31T14:55:32.410Z,14.83
2022-12-31T15:00:58.498Z,14.79
2022-12-31T15:03:37.894Z,14.78
2022-12-31T15:06:24.631Z,14.74
2022-12-31T15:09:20.647Z,14.72
2022-12-31T15:12:17.942Z,14.70
2022-12-31T15:15:08.842Z,14.69
2022-12-31T15:17:46.740Z,14.70
2022-12-31T15:20:51.073Z,14.72
2022-12-31T15:23:24.841Z,14.74
2022-12-31T15:26:02.600Z,14.76
2022-12-31T15:28:39.765Z,14.76
2022-12-31T15:31:17.423Z,14.79
2022-12-31T15:34:06.065Z,14.82
2022-12-31T15:36:39.890Z,14.80
2022-12-31T15:39:11.650Z,14.78
2022-12-31T15:42:18.237Z,14.78
2022-12-31T15:45:06.686Z,14.76
2022-12-31T15:47:37.787Z,14.76
2022-12-31T15:50:18.819Z,14.75
2022-12-31T15:52:54.665Z,14.72
2022-12-31T15:55:45.168Z,14.69
2022-12-31T15:58:32.365Z,14.64
2022-12-31T16:01:19.763Z,14.64
2022-12-31T16:03:58.285Z,14.65
2022-12-31T16:06:30.283Z,14.67
2022-12-31T16:08:59.483Z,14.67
2022-12-31T16:11:30.834Z,14.67
2022-12-31T16:14:00.271Z,14.68
2022-12-31T16:16:31.796Z,14.68
2022-12-31T16:19:01.694Z,14.68
2022-12-31T16:21:37.936Z,14.68
2022-12-31T16:24:23.372Z,14.68
2022-12-31T16:26:54.484Z,14.69
2022-12-31T16:29:24.186Z,14.69
2022-12-31T16:31:54.301Z,14.69
2022-12-31T16:34:25.266Z,14.68
2022-12-31T16:37:02.629Z,14.66
2022-12-31T16:39:36.445Z,14.62
2022-12-31T16:42:18.575Z,14.56
2022-12-31T16:44:49.796Z,14.49
2022-12-31T16:47:24.057Z,14.42
2022-12-31T16:50:00.532Z,14.38
2022-12-31T16:52:40.059Z,14.35
2022-12-31T16:55:12.473Z,14.31
2022-12-31T16:57:43.282Z,14.26
2022-12-31T17:00:17.423Z,14.20
2022-12-31T17:02:51.022Z,14.12
2022-12-31T17:05:25.250Z,14.06
2022-12-31T17:07:54.646Z,13.99
2022-12-31T17:10:26.178Z,13.92
2022-12-31T17:15:49.108Z,13.81
2022-12-31T17:18:23.696Z,13.78
2022-12-31T17:20:53.808Z,13.76
2022-12-31T17:23:27.599Z,13.75
2022-12-31T17:26:01.171Z,13.74
2022-12-31T17:28:37.504Z,13.74
2022-12-31T17:31:33.886Z,13.75
2022-12-31T17:34:14.686Z,13.79
2022-12-31T17:37:29.240Z,13.83
2022-12-31T17:40:48.733Z,13.89
2022-12-31T17:42:52.562Z,13.95
2022-12-31T17:45:22.374Z,13.96
2022-12-31T17:47:54.119Z,13.96
2022-12-31T17:50:25.357Z,13.98
2022-12-31T17:53:09.982Z,14.01
2022-12-31T17:55:38.851Z,14.04
2022-12-31T17:58:08.286Z,14.12
2022-12-31T18:00:37.613Z,14.22
2022-12-31T18:03:06.411Z,14.29
2022-12-31T18:05:35.462Z,14.34
2022-12-31T18:08:04.579Z,14.40
2022-12-31T18:10:37.049Z,14.45
2022-12-31T18:13:06.975Z,14.49
2022-12-31T18:15:35.638Z,14.49
2022-12-31T18:18:20.934Z,14.50
2022-12-31T18:20:57.586Z,14.51
2022-12-31T18:23:29.999Z,14.50
2022-12-31T18:25:58.749Z,14.50
2022-12-31T18:28:27.418Z,14.50
2022-12-31T18:30:56.423Z,14.50
2022-12-31T18:33:27.167Z,14.51
2022-12-31T18:36:08.672Z,14.49
2022-12-31T18:38:39.656Z,14.48
2022-12-31T18:41:21.883Z,14.46
2022-12-31T18:43:52.498Z,14.43
2022-12-31T18:46:23.915Z,14.40
2022-12-31T18:48:52.976Z,14.37
2022-12-31T18:51:29.611Z,14.34
2022-12-31T18:54:01.540Z,14.30
2022-12-31T18:56:30.380Z,14.27
2022-12-31T18:59:00.122Z,14.25
2022-12-31T19:01:34.471Z,14.23
2022-12-31T19:04:27.014Z,14.21
2022-12-31T19:06:57.910Z,14.17
2022-12-31T19:12:16.057Z,14.15
2022-12-31T19:14:46.073Z,14.17
2022-12-31T19:17:14.845Z,14.22
2022-12-31T19:19:43.649Z,14.29
2022-12-31T19:22:16.981Z,14.37
2022-12-31T19:24:45.509Z,14.43
2022-12-31T19:27:15.515Z,14.48
2022-12-31T19:29:44.419Z,14.54
2022-12-31T19:32:13.553Z,14.59
2022-12-31T19:34:42.634Z,14.62
2022-12-31T19:37:16.402Z,14.64
2022-12-31T19:39:44.998Z,14.62
2022-12-31T19:42:15.841Z,14.56
2022-12-31T19:44:44.402Z,14.48
2022-12-31T19:47:13.924Z,14.36
2022-12-31T19:49:42.596Z,14.27
2022-12-31T19:52:11.530Z,14.19
2022-12-31T19:54:40.479Z,14.12
2022-12-31T19:57:09.486Z,14.06
2022-12-31T19:59:38.589Z,14.00
2022-12-31T20:02:08.017Z,13.95
2022-12-31T20:04:37.123Z,13.88
2022-12-31T20:07:06.789Z,13.79
2022-12-31T20:09:35.403Z,13.72
2022-12-31T20:12:04.468Z,13.66
2022-12-31T20:14:33.763Z,13.65
2022-12-31T20:17:02.598Z,13.64
2022-12-31T20:19:32.157Z,13.64
2022-12-31T20:22:00.837Z,13.64
2022-12-31T20:24:29.739Z,13.63
2022-12-31T20:26:59.340Z,13.61
2022-12-31T20:29:28.305Z,13.59
2022-12-31T20:31:57.436Z,13.59
2022-12-31T20:34:26.944Z,13.59
2022-12-31T20:36:56.028Z,13.61
2022-12-31T20:39:24.699Z,13.61
2022-12-31T20:41:53.780Z,13.64
2022-12-31T20:44:22.701Z,13.67
2022-12-31T20:46:51.611Z,13.74
2022-12-31T20:49:31.372Z,13.86
2022-12-31T20:52:09.262Z,14.02
2022-12-31T20:54:38.339Z,14.11
2022-12-31T20:57:07.727Z,14.17
2022-12-31T20:59:36.505Z,14.18
2022-12-31T21:02:21.110Z,14.13
2022-12-31T21:04:50.750Z,14.05
2022-12-31T21:07:19.881Z,13.99
2022-12-31T21:09:48.559Z,13.93
2022-12-31T21:12:36.494Z,13.86
2022-12-31T21:15:06.592Z,13.76
2022-12-31T21:17:36.245Z,13.67
2022-12-31T21:20:07.065Z,13.57
2022-12-31T21:22:35.964Z,13.47
2022-12-31T21:25:05.251Z,13.40
2022-12-31T21:27:33.938Z,13.33
2022-12-31T21:30:18.157Z,13.27
2022-12-31T21:32:48.624Z,13.19
2022-12-31T21:38:08.346Z,13.12
2022-12-31T21:40:37.526Z,13.12
2022-12-31T21:43:08.865Z,13.13
2022-12-31T21:45:38.466Z,13.12
2022-12-31T21:48:20.577Z,13.12
2022-12-31T21:51:05.840Z,13.12
2022-12-31T21:53:37.156Z,13.11
2022-12-31T21:56:10.404Z,13.09
2022-12-31T21:58:44.379Z,13.08
2022-12-31T22:01:37.702Z,13.06
2022-12-31T22:04:28.221Z,13.06
2022-12-31T22:06:57.439Z,13.07
2022-12-31T22:09:26.343Z,13.07
2022-12-31T22:11:55.127Z,13.06
2022-12-31T22:14:23.919Z,13.04
2022-12-31T22:16:52.602Z,13.00
2022-12-31T22:19:21.894Z,12.95
2022-12-31T22:21:51.398Z,12.89
2022-12-31T22:24:20.178Z,12.83
2022-12-31T22:26:49.069Z,12.75
2022-12-31T22:29:19.489Z,12.66
2022-12-31T22:31:48.085Z,12.57
2022-12-31T22:34:17.275Z,12.50
2022-12-31T22:36:45.873Z,12.45
2022-12-31T22:39:43.709Z,12.41
2022-12-31T22:42:05.463Z,12.37
2022-12-31T22:44:34.419Z,12.32
2022-12-31T22:47:03.174Z,12.26
2022-12-31T22:49:31.921Z,12.31
2022-12-31T22:52:05.592Z,12.49
2022-12-31T22:54:37.269Z,12.70
2022-12-31T22:57:06.030Z,12.88
2022-12-31T22:59:34.862Z,13.01
2022-12-31T23:02:03.737Z,13.04
2022-12-31T23:04:33.199Z,12.96
2022-12-31T23:07:02.259Z,12.85
2022-12-31T23:09:49.979Z,12.73
2022-12-31T23:12:18.858Z,12.63
2022-12-31T23:15:06.602Z,12.64
2022-12-31T23:17:54.343Z,12.75
2022-12-31T23:20:43.911Z,12.91
2022-12-31T23:23:17.197Z,13.10
2022-12-31T23:25:48.090Z,13.31
2022-12-31T23:28:25.003Z,13.51
2022-12-31T23:30:54.044Z,13.69
2022-12-31T23:33:26.614Z,13.79
2022-12-31T23:36:07.928Z,13.86
2022-12-31T23:38:36.661Z,13.92
2022-12-31T23:41:16.445Z,14.01
2022-12-31T23:43:45.379Z,14.14
2022-12-31T23:46:15.128Z,14.24
2022-12-31T23:48:43.791Z,14.34
2022-12-31T23:51:12.560Z,14.47
2022-12-31T23:53:41.466Z,14.53
2022-12-31T23:56:20.942Z,14.58
2022-12-31T23:58:56.169Z,14.67
